Time;durP1;ratioP1;P1;durP2;ratioP2;P2;SDS_P1;SDS_P2;PMS_P1;PMS_P2;Temp;Humidity;BMP_temperature;BMP_pressure;BME280_temperature;BME280_humidity;BME280_pressure;Samples;Min_cycle;Max_cycle;Signal;HPM_P1;HPM_P2
2022/01/31 00:00:17;;;;;;;9.80;3.97;;;;;;;;;;5096600;28;20203;-85
2022/01/31 00:02:46;;;;;;;5.40;2.70;;;;;;;;;;5096306;28;20201;-84
2022/01/31 00:05:16;;;;;;;10.93;3.60;;;;;;;;;;5095770;28;20204;-85
2022/01/31 00:07:43;;;;;;;7.47;3.50;;;;;;;;;;5095740;28;20212;-86
2022/01/31 00:10:13;;;;;;;6.38;3.38;;;;;;;;;;5096367;28;20204;-85
2022/01/31 00:12:51;;;;;;;4.60;2.40;;;;;;;;;;5095726;28;20204;-85
2022/01/31 00:15:18;;;;;;;10.88;4.55;;;;;;;;;;5096321;28;20204;-84
2022/01/31 00:17:45;;;;;;;7.93;2.97;;;;;;;;;;5095955;28;20223;-85
2022/01/31 00:20:13;;;;;;;7.78;3.42;;;;;;;;;;5095212;28;20249;-84
2022/01/31 00:22:41;;;;;;;10.05;3.92;;;;;;;;;;5096092;28;20208;-84
2022/01/31 00:25:09;;;;;;;9.63;2.88;;;;;;;;;;5096113;28;20201;-85
2022/01/31 00:27:37;;;;;;;4.72;3.17;;;;;;;;;;5095701;28;20226;-85
2022/01/31 00:30:06;;;;;;;6.20;3.33;;;;;;;;;;5095738;28;20287;-85
2022/01/31 00:32:33;;;;;;;6.55;3.85;;;;;;;;;;5095534;28;20200;-85
2022/01/31 00:35:01;;;;;;;4.45;3.05;;;;;;;;;;5095867;28;20216;-85
2022/01/31 00:37:28;;;;;;;6.72;3.78;;;;;;;;;;5096167;28;20273;-84
2022/01/31 00:39:57;;;;;;;3.53;2.80;;;;;;;;;;5095669;28;20672;-85
2022/01/31 00:42:26;;;;;;;6.18;4.07;;;;;;;;;;5095046;28;20677;-85
2022/01/31 00:44:56;;;;;;;6.50;3.17;;;;;;;;;;5095566;28;20609;-84
2022/01/31 00:47:25;;;;;;;5.28;3.13;;;;;;;;;;5096018;28;20289;-85
2022/01/31 00:50:02;;;;;;;6.13;3.75;;;;;;;;;;5095910;28;20234;-84
2022/01/31 00:52:30;;;;;;;7.47;2.53;;;;;;;;;;5095122;28;20203;-85
2022/01/31 00:54:58;;;;;;;7.75;3.97;;;;;;;;;;5094716;28;20224;-85
2022/01/31 00:57:26;;;;;;;6.30;3.15;;;;;;;;;;5094560;28;20232;-85
2022/01/31 00:59:53;;;;;;;12.98;4.60;;;;;;;;;;5094425;28;20204;-85
2022/01/31 01:02:21;;;;;;;9.35;3.05;;;;;;;;;;5094696;28;20192;-85
2022/01/31 01:04:48;;;;;;;5.00;2.95;;;;;;;;;;5094923;28;20197;-85
2022/01/31 01:07:16;;;;;;;4.10;2.22;;;;;;;;;;5094695;28;20216;-85
2022/01/31 01:09:44;;;;;;;6.25;3.25;;;;;;;;;;5094652;28;20644;-85
2022/01/31 01:12:15;;;;;;;4.97;3.67;;;;;;;;;;5094439;28;20192;-85
2022/01/31 01:14:44;;;;;;;11.90;5.90;;;;;;;;;;5095115;28;20208;-85
2022/01/31 01:17:11;;;;;;;16.98;5.03;;;;;;;;;;5094528;28;20224;-84
2022/01/31 01:19:39;;;;;;;6.07;4.25;;;;;;;;;;5094466;28;20249;-85
2022/01/31 01:22:06;;;;;;;5.85;3.65;;;;;;;;;;5094095;28;20249;-85
2022/01/31 01:24:34;;;;;;;4.75;2.88;;;;;;;;;;5094519;28;20208;-85
2022/01/31 01:27:01;;;;;;;7.78;3.40;;;;;;;;;;5094196;28;20719;-84
2022/01/31 01:29:30;;;;;;;6.15;4.05;;;;;;;;;;5094491;28;20245;-85
2022/01/31 01:31:57;;;;;;;9.73;3.75;;;;;;;;;;5094031;28;20664;-85
2022/01/31 01:34:26;;;;;;;5.28;2.90;;;;;;;;;;5094089;28;20196;-85
2022/01/31 01:36:53;;;;;;;5.78;3.53;;;;;;;;;;5093808;28;20235;-85
2022/01/31 01:39:21;;;;;;;7.93;2.88;;;;;;;;;;5094305;28;20210;-85
2022/01/31 01:41:48;;;;;;;8.18;3.58;;;;;;;;;;5094206;28;20196;-85
2022/01/31 01:44:16;;;;;;;7.60;2.85;;;;;;;;;;5093999;28;20630;-86
2022/01/31 01:46:44;;;;;;;4.40;2.47;;;;;;;;;;5093560;28;20223;-85
2022/01/31 01:49:15;;;;;;;7.25;3.60;;;;;;;;;;5076132;28;20322;-85
2022/01/31 01:51:42;;;;;;;4.78;2.35;;;;;;;;;;5094234;28;20550;-85
2022/01/31 01:54:10;;;;;;;6.25;3.83;;;;;;;;;;5093389;28;20207;-85
2022/01/31 01:56:37;;;;;;;4.25;3.15;;;;;;;;;;5093583;28;20228;-85
2022/01/31 01:59:05;;;;;;;4.10;3.40;;;;;;;;;;5093683;28;20215;-84
2022/01/31 02:01:32;;;;;;;4.72;2.85;;;;;;;;;;5093888;28;20258;-85
2022/01/31 02:04:01;;;;;;;5.07;2.50;;;;;;;;;;5093605;28;20257;-85
2022/01/31 02:06:28;;;;;;;9.13;3.70;;;;;;;;;;5093603;28;20228;-86
2022/01/31 02:08:56;;;;;;;4.68;2.83;;;;;;;;;;5093301;28;20192;-85
2022/01/31 02:11:24;;;;;;;8.80;3.40;;;;;;;;;;5093949;28;20623;-85
2022/01/31 02:13:51;;;;;;;5.75;3.45;;;;;;;;;;5093605;28;20196;-85
2022/01/31 02:16:19;;;;;;;5.70;3.30;;;;;;;;;;5093613;28;20236;-85
2022/01/31 02:18:49;;;;;;;6.70;3.45;;;;;;;;;;5093631;28;20230;-85
2022/01/31 02:21:18;;;;;;;4.85;2.40;;;;;;;;;;5093714;28;20196;-85
2022/01/31 02:23:46;;;;;;;7.30;2.60;;;;;;;;;;5093171;28;20205;-85
2022/01/31 02:26:13;;;;;;;3.40;2.65;;;;;;;;;;5093462;28;20227;-85
2022/01/31 02:28:42;;;;;;;6.20;3.97;;;;;;;;;;5093212;28;20660;-85
2022/01/31 02:31:09;;;;;;;6.38;2.58;;;;;;;;;;5093567;28;20535;-85
2022/01/31 02:33:37;;;;;;;5.70;3.70;;;;;;;;;;5093145;28;20208;-85
2022/01/31 02:36:06;;;;;;;5.13;2.70;;;;;;;;;;5093373;28;20228;-85
2022/01/31 02:38:35;;;;;;;10.45;3.88;;;;;;;;;;5093222;28;20645;-85
2022/01/31 02:41:03;;;;;;;5.43;2.72;;;;;;;;;;5092559;28;20219;-84
2022/01/31 02:43:33;;;;;;;6.32;3.92;;;;;;;;;;5092870;28;20695;-87
2022/01/31 02:46:01;;;;;;;7.05;2.72;;;;;;;;;;5093048;28;20220;-85
2022/01/31 02:48:33;;;;;;;3.10;2.60;;;;;;;;;;5093391;28;20660;-85
2022/01/31 02:51:00;;;;;;;3.72;1.95;;;;;;;;;;5093372;28;20211;-85
2022/01/31 02:53:30;;;;;;;3.38;2.65;;;;;;;;;;5092786;28;20200;-85
2022/01/31 02:56:01;;;;;;;8.55;2.72;;;;;;;;;;5092745;28;20311;-86
2022/01/31 02:58:30;;;;;;;9.45;3.53;;;;;;;;;;5093356;28;20665;-86
2022/01/31 03:00:59;;;;;;;7.93;3.63;;;;;;;;;;5092835;28;20197;-85
2022/01/31 03:03:26;;;;;;;8.10;2.92;;;;;;;;;;5092658;28;20211;-86
2022/01/31 03:05:54;;;;;;;7.65;2.85;;;;;;;;;;5096902;28;20231;-86
2022/01/31 03:08:23;;;;;;;7.22;3.47;;;;;;;;;;5097228;28;20625;-85
2022/01/31 03:10:51;;;;;;;8.63;3.17;;;;;;;;;;5099073;28;20245;-85
2022/01/31 03:13:20;;;;;;;9.55;3.42;;;;;;;;;;5106400;28;20204;-85
2022/01/31 03:15:49;;;;;;;3.13;2.15;;;;;;;;;;5097181;28;20244;-85
2022/01/31 03:18:16;;;;;;;12.45;2.97;;;;;;;;;;5097242;28;20235;-85
2022/01/31 03:20:43;;;;;;;4.13;2.83;;;;;;;;;;5096907;28;20204;-85
2022/01/31 03:23:13;;;;;;;7.93;3.40;;;;;;;;;;5096506;28;20204;-85
2022/01/31 03:25:40;;;;;;;5.07;2.80;;;;;;;;;;5096894;28;20207;-85
2022/01/31 03:28:07;;;;;;;5.88;3.00;;;;;;;;;;5096514;28;20200;-85
2022/01/31 03:30:36;;;;;;;8.18;3.95;;;;;;;;;;5096465;28;20211;-85
2022/01/31 03:33:03;;;;;;;7.65;3.85;;;;;;;;;;5096399;28;20683;-85
2022/01/31 03:35:31;;;;;;;8.15;3.45;;;;;;;;;;5096582;28;20207;-85
2022/01/31 03:37:59;;;;;;;8.98;3.90;;;;;;;;;;5096737;28;20232;-85
2022/01/31 03:40:27;;;;;;;6.70;3.85;;;;;;;;;;5096495;28;20188;-85
2022/01/31 03:42:54;;;;;;;7.93;3.70;;;;;;;;;;5096596;28;20223;-85
2022/01/31 03:45:22;;;;;;;7.40;2.97;;;;;;;;;;5096398;28;20208;-85
2022/01/31 03:47:51;;;;;;;7.30;2.85;;;;;;;;;;5096801;28;20212;-86
2022/01/31 03:50:20;;;;;;;7.35;2.97;;;;;;;;;;5096421;28;20582;-85
2022/01/31 03:52:48;;;;;;;4.47;2.67;;;;;;;;;;5096231;28;20211;-85
2022/01/31 03:55:16;;;;;;;5.68;3.92;;;;;;;;;;5096162;28;20567;-85
2022/01/31 03:57:43;;;;;;;4.57;2.55;;;;;;;;;;5097703;28;20232;-84
2022/01/31 04:00:13;;;;;;;6.03;3.20;;;;;;;;;;5099158;28;20200;-85
2022/01/31 04:02:42;;;;;;;9.63;3.95;;;;;;;;;;5098557;28;20200;-84
2022/01/31 04:05:10;;;;;;;6.25;3.38;;;;;;;;;;5098492;28;20200;-84
2022/01/31 04:07:39;;;;;;;3.15;2.45;;;;;;;;;;5098818;28;20593;-85
2022/01/31 04:10:07;;;;;;;8.45;2.45;;;;;;;;;;5099714;28;20656;-84
2022/01/31 04:12:35;;;;;;;3.35;2.50;;;;;;;;;;5100044;28;20192;-85
2022/01/31 04:15:02;;;;;;;6.93;2.72;;;;;;;;;;5100132;28;20207;-85
2022/01/31 04:17:32;;;;;;;5.70;2.70;;;;;;;;;;5097290;28;20228;-85
2022/01/31 04:19:59;;;;;;;4.88;3.00;;;;;;;;;;5098631;28;20193;-84
2022/01/31 04:22:31;;;;;;;5.45;2.80;;;;;;;;;;5100440;28;20782;-85
2022/01/31 04:25:02;;;;;;;4.13;2.00;;;;;;;;;;5100108;28;20211;-85
2022/01/31 04:27:33;;;;;;;6.60;3.40;;;;;;;;;;5099190;28;20248;-85
2022/01/31 04:30:00;;;;;;;6.18;2.75;;;;;;;;;;5099072;28;20203;-85
2022/01/31 04:32:28;;;;;;;4.38;3.65;;;;;;;;;;5099695;28;20200;-87
2022/01/31 04:34:55;;;;;;;4.68;2.70;;;;;;;;;;5100319;28;20196;-84
2022/01/31 04:37:22;;;;;;;3.20;2.80;;;;;;;;;;5099175;28;20273;-84
2022/01/31 04:39:51;;;;;;;6.82;2.60;;;;;;;;;;5099335;28;20200;-86
2022/01/31 04:42:18;;;;;;;6.50;2.78;;;;;;;;;;5098114;28;20585;-85
2022/01/31 04:44:46;;;;;;;6.05;2.70;;;;;;;;;;5096748;28;20656;-85
2022/01/31 04:47:13;;;;;;;6.85;2.42;;;;;;;;;;5096339;28;20323;-83
2022/01/31 04:49:40;;;;;;;6.20;2.83;;;;;;;;;;5096970;28;20223;-85
2022/01/31 04:52:08;;;;;;;3.17;2.10;;;;;;;;;;5096407;28;20265;-85
2022/01/31 04:54:35;;;;;;;7.75;3.40;;;;;;;;;;5096002;28;20675;-85
2022/01/31 04:57:05;;;;;;;4.55;2.65;;;;;;;;;;5097185;28;20234;-86
2022/01/31 04:59:33;;;;;;;2.78;2.50;;;;;;;;;;5096774;28;20223;-85
2022/01/31 05:02:00;;;;;;;2.80;2.13;;;;;;;;;;5096579;28;20200;-85
2022/01/31 05:04:27;;;;;;;2.35;2.15;;;;;;;;;;5096697;28;20640;-84
2022/01/31 05:06:55;;;;;;;2.75;2.00;;;;;;;;;;5096373;28;20220;-85
2022/01/31 05:09:22;;;;;;;3.67;2.08;;;;;;;;;;5096017;28;20212;-85
2022/01/31 05:11:49;;;;;;;2.35;2.15;;;;;;;;;;5095530;28;20200;-86
2022/01/31 05:14:18;;;;;;;2.95;2.00;;;;;;;;;;5096321;28;20570;-84
2022/01/31 05:16:46;;;;;;;3.28;1.73;;;;;;;;;;5111890;28;20234;-85
2022/01/31 05:19:16;;;;;;;1.63;1.45;;;;;;;;;;5112165;28;20206;-85
2022/01/31 05:21:44;;;;;;;1.77;1.50;;;;;;;;;;5116191;28;20210;-85
2022/01/31 05:24:11;;;;;;;1.83;1.27;;;;;;;;;;5106016;28;20699;-87
2022/01/31 05:26:39;;;;;;;1.75;1.40;;;;;;;;;;5095661;28;20244;-85
2022/01/31 05:29:06;;;;;;;2.03;1.75;;;;;;;;;;5095710;28;20241;-86
2022/01/31 05:31:37;;;;;;;1.50;1.40;;;;;;;;;;5095246;28;20835;-86
2022/01/31 05:34:05;;;;;;;2.67;1.77;;;;;;;;;;5095126;28;20654;-86
2022/01/31 05:36:36;;;;;;;1.88;1.73;;;;;;;;;;5094896;28;20228;-87
2022/01/31 05:39:03;;;;;;;2.13;1.60;;;;;;;;;;5094293;28;20228;-86
2022/01/31 05:41:31;;;;;;;1.50;1.40;;;;;;;;;;5094432;28;20196;-85
2022/01/31 05:43:58;;;;;;;1.63;1.52;;;;;;;;;;5094655;28;20200;-85
2022/01/31 05:46:26;;;;;;;1.30;1.23;;;;;;;;;;5094937;28;20231;-86
2022/01/31 05:48:55;;;;;;;2.00;1.30;;;;;;;;;;5100468;28;20562;-85
2022/01/31 05:51:24;;;;;;;1.63;1.38;;;;;;;;;;5095794;28;20203;-86
2022/01/31 05:53:52;;;;;;;2.78;1.50;;;;;;;;;;5099251;28;20208;-86
2022/01/31 05:56:20;;;;;;;1.45;1.38;;;;;;;;;;5099385;28;20228;-86
2022/01/31 05:58:49;;;;;;;1.42;1.20;;;;;;;;;;5099471;28;20220;-86
2022/01/31 06:01:17;;;;;;;1.55;1.27;;;;;;;;;;5099289;28;20203;-86
2022/01/31 06:03:44;;;;;;;1.00;0.95;;;;;;;;;;5099767;28;20208;-86
2022/01/31 06:06:13;;;;;;;1.45;1.35;;;;;;;;;;5099324;28;20216;-86
2022/01/31 06:08:40;;;;;;;1.33;1.23;;;;;;;;;;5099641;28;20285;-86
2022/01/31 06:11:08;;;;;;;1.25;1.25;;;;;;;;;;5099041;28;20683;-86
2022/01/31 06:13:35;;;;;;;1.25;1.15;;;;;;;;;;5098839;28;20208;-86
2022/01/31 06:16:03;;;;;;;1.20;1.10;;;;;;;;;;5097666;28;20269;-86
2022/01/31 06:18:30;;;;;;;1.52;1.20;;;;;;;;;;5098147;28;20220;-87
2022/01/31 06:20:57;;;;;;;3.92;2.45;;;;;;;;;;5097013;28;20196;-87
2022/01/31 06:23:26;;;;;;;1.23;1.20;;;;;;;;;;5097334;28;20203;-86
2022/01/31 06:25:54;;;;;;;2.00;1.30;;;;;;;;;;5094763;28;20235;-87
2022/01/31 06:28:21;;;;;;;0.90;0.90;;;;;;;;;;5095700;28;20204;-86
2022/01/31 06:30:49;;;;;;;1.20;1.00;;;;;;;;;;5095414;28;20291;-87
2022/01/31 06:33:16;;;;;;;0.98;0.98;;;;;;;;;;5096058;28;20228;-87
2022/01/31 06:35:44;;;;;;;0.80;0.80;;;;;;;;;;5097427;28;20299;-88
2022/01/31 06:38:12;;;;;;;1.00;0.90;;;;;;;;;;5090720;28;20693;-87
2022/01/31 06:40:41;;;;;;;1.02;1.02;;;;;;;;;;5083064;28;20197;-86
2022/01/31 06:43:09;;;;;;;1.00;1.00;;;;;;;;;;5095918;28;20203;-86
2022/01/31 06:45:36;;;;;;;0.82;0.82;;;;;;;;;;5096225;28;20204;-85
2022/01/31 06:48:04;;;;;;;1.38;1.27;;;;;;;;;;5096274;28;20211;-84
2022/01/31 06:50:31;;;;;;;0.77;0.77;;;;;;;;;;5095571;28;20204;-86
2022/01/31 06:53:27;;;;;;;2.67;1.13;;;;;;;;;;5094583;28;20192;-87
2022/01/31 06:55:57;;;;;;;1.20;1.00;;;;;;;;;;5094537;28;20259;-87
2022/01/31 06:58:25;;;;;;;0.70;0.70;;;;;;;;;;5094689;28;20222;-87
2022/01/31 07:00:53;;;;;;;0.77;0.77;;;;;;;;;;5094573;28;20204;-87
2022/01/31 07:03:20;;;;;;;0.77;0.77;;;;;;;;;;5094810;28;20652;-87
2022/01/31 07:05:51;;;;;;;1.00;1.00;;;;;;;;;;5094899;28;20948;-87
2022/01/31 07:08:18;;;;;;;1.92;1.83;;;;;;;;;;5086284;28;20630;-86
2022/01/31 07:10:51;;;;;;;1.30;1.17;;;;;;;;;;5103771;28;20208;-87
2022/01/31 07:13:35;;;;;;;1.25;1.15;;;;;;;;;;5096399;28;20204;-85
2022/01/31 07:16:03;;;;;;;1.30;1.20;;;;;;;;;;5090797;28;20220;-85
2022/01/31 07:18:32;;;;;;;1.63;1.20;;;;;;;;;;5094660;28;20232;-85
2022/01/31 07:21:00;;;;;;;1.48;1.10;;;;;;;;;;5095471;28;20207;-86
2022/01/31 07:23:30;;;;;;;1.70;1.60;;;;;;;;;;5094398;28;20197;-85
2022/01/31 07:25:57;;;;;;;1.10;1.10;;;;;;;;;;5095667;28;20303;-85
2022/01/31 07:28:26;;;;;;;2.60;1.80;;;;;;;;;;5096183;28;20733;-85
2022/01/31 07:30:54;;;;;;;1.88;1.55;;;;;;;;;;5095062;28;20208;-85
2022/01/31 07:33:22;;;;;;;2.22;1.70;;;;;;;;;;5095180;28;20216;-84
2022/01/31 07:35:51;;;;;;;2.67;1.60;;;;;;;;;;5095253;28;20236;-86
2022/01/31 07:38:19;;;;;;;5.10;2.00;;;;;;;;;;5095573;28;20232;-86
2022/01/31 07:40:47;;;;;;;1.42;1.33;;;;;;;;;;5097714;28;20200;-85
2022/01/31 07:43:15;;;;;;;1.40;1.27;;;;;;;;;;5096728;28;20211;-85
2022/01/31 07:45:43;;;;;;;1.30;1.20;;;;;;;;;;5097224;28;20215;-86
2022/01/31 07:48:11;;;;;;;2.10;1.60;;;;;;;;;;5096715;28;20421;-86
2022/01/31 07:50:38;;;;;;;1.65;1.55;;;;;;;;;;5097702;28;20709;-86
2022/01/31 07:53:05;;;;;;;1.20;1.10;;;;;;;;;;5099970;28;20211;-85
2022/01/31 07:55:33;;;;;;;1.10;0.90;;;;;;;;;;5099495;28;20262;-87
2022/01/31 07:58:01;;;;;;;0.93;0.90;;;;;;;;;;5097553;28;20623;-87
2022/01/31 08:00:29;;;;;;;1.55;1.40;;;;;;;;;;5100130;28;20816;-87
2022/01/31 08:02:58;;;;;;;1.75;1.60;;;;;;;;;;5098472;28;20200;-88
2022/01/31 08:05:25;;;;;;;1.33;1.30;;;;;;;;;;5099959;28;20254;-88
2022/01/31 08:07:53;;;;;;;1.50;1.40;;;;;;;;;;5100731;28;20216;-88
2022/01/31 08:10:20;;;;;;;1.25;1.15;;;;;;;;;;5099965;28;20582;-87
2022/01/31 08:12:48;;;;;;;1.98;1.88;;;;;;;;;;5099842;28;20217;-86
2022/01/31 08:18:06;;;;;;;1.38;1.20;;;;;;;;;;5094080;22;20231;-87
2022/01/31 08:20:34;;;;;;;2.22;1.20;;;;;;;;;;5077476;28;20236;-86
2022/01/31 08:23:07;;;;;;;2.15;1.38;;;;;;;;;;5076505;28;20209;-87
2022/01/31 08:25:36;;;;;;;1.17;1.08;;;;;;;;;;5075575;28;20209;-85
2022/01/31 08:28:09;;;;;;;0.80;0.80;;;;;;;;;;5049728;28;20197;-84
2022/01/31 08:30:44;;;;;;;1.08;1.08;;;;;;;;;;5050706;28;20205;-85
2022/01/31 08:33:25;;;;;;;1.40;1.33;;;;;;;;;;5057474;28;20201;-85
2022/01/31 08:35:53;;;;;;;1.80;1.08;;;;;;;;;;5056142;28;20570;-84
2022/01/31 08:38:20;;;;;;;1.70;1.45;;;;;;;;;;5061316;28;20205;-84
2022/01/31 08:40:48;;;;;;;1.38;1.27;;;;;;;;;;5078374;28;20225;-85
2022/01/31 08:43:17;;;;;;;1.00;1.00;;;;;;;;;;5074401;28;20641;-85
2022/01/31 08:45:45;;;;;;;2.00;1.23;;;;;;;;;;5074234;28;20209;-84
2022/01/31 08:48:14;;;;;;;2.03;1.92;;;;;;;;;;5075369;28;20251;-85
2022/01/31 08:50:41;;;;;;;1.17;1.17;;;;;;;;;;5074614;28;20205;-86
2022/01/31 08:53:08;;;;;;;1.25;1.20;;;;;;;;;;5073685;28;20674;-84
2022/01/31 08:55:36;;;;;;;1.38;1.00;;;;;;;;;;5060639;28;20213;-86
2022/01/31 08:58:06;;;;;;;0.95;0.95;;;;;;;;;;5073713;28;20193;-86
2022/01/31 09:00:35;;;;;;;1.77;0.80;;;;;;;;;;5073788;28;20228;-86
2022/01/31 09:03:18;;;;;;;0.80;0.80;;;;;;;;;;5073290;28;20665;-86
2022/01/31 09:05:47;;;;;;;1.00;0.68;;;;;;;;;;5073693;28;20207;-86
2022/01/31 09:08:14;;;;;;;0.60;0.60;;;;;;;;;;5067356;28;20292;-86
2022/01/31 09:10:43;;;;;;;0.85;0.85;;;;;;;;;;5073301;28;20278;-87
2022/01/31 09:13:12;;;;;;;0.65;0.65;;;;;;;;;;5073745;28;20352;-86
2022/01/31 09:15:40;;;;;;;0.57;0.57;;;;;;;;;;5073144;28;20201;-85
2022/01/31 09:18:08;;;;;;;0.70;0.70;;;;;;;;;;5054182;28;20213;-86
2022/01/31 09:20:36;;;;;;;0.90;0.90;;;;;;;;;;5073370;28;20231;-86
2022/01/31 09:23:05;;;;;;;0.50;0.50;;;;;;;;;;5066759;28;20213;-85
2022/01/31 09:25:34;;;;;;;0.60;0.60;;;;;;;;;;5047582;28;20232;-86
2022/01/31 09:28:03;;;;;;;0.60;0.60;;;;;;;;;;5048029;28;20251;-84
2022/01/31 09:30:31;;;;;;;0.50;0.50;;;;;;;;;;5062035;28;20200;-86
2022/01/31 09:32:59;;;;;;;0.50;0.50;;;;;;;;;;5054924;28;20205;-85
2022/01/31 09:35:27;;;;;;;0.73;0.73;;;;;;;;;;5053512;28;20661;-85
2022/01/31 09:37:54;;;;;;;0.77;0.57;;;;;;;;;;5054420;28;20214;-86
2022/01/31 09:40:23;;;;;;;0.50;0.50;;;;;;;;;;5047686;28;20255;-85
2022/01/31 09:43:08;;;;;;;0.60;0.60;;;;;;;;;;5048111;28;20224;-85
2022/01/31 09:45:52;;;;;;;0.70;0.70;;;;;;;;;;5059082;28;20621;-86
2022/01/31 09:48:35;;;;;;;1.85;0.80;;;;;;;;;;5048642;28;20283;-87
2022/01/31 09:51:07;;;;;;;0.98;0.98;;;;;;;;;;5061236;28;20627;-88
2022/01/31 09:53:38;;;;;;;1.42;0.80;;;;;;;;;;5060206;28;20210;-87
2022/01/31 09:56:10;;;;;;;0.98;0.90;;;;;;;;;;5073208;28;20236;-87
2022/01/31 09:58:37;;;;;;;0.77;0.77;;;;;;;;;;5073725;28;20209;-87
2022/01/31 10:01:10;;;;;;;1.10;0.88;;;;;;;;;;5055314;28;20701;-88
2022/01/31 10:03:49;;;;;;;0.80;0.80;;;;;;;;;;5066344;28;20301;-88
2022/01/31 10:06:22;;;;;;;0.43;0.43;;;;;;;;;;5053760;28;20606;-88
2022/01/31 10:09:00;;;;;;;0.60;0.60;;;;;;;;;;5054006;28;20213;-88
2022/01/31 10:11:30;;;;;;;0.63;0.63;;;;;;;;;;5060877;28;20247;-89
2022/01/31 10:17:02;;;;;;;0.70;0.70;;;;;;;;;;5061166;28;20243;-88
2022/01/31 10:19:29;;;;;;;0.55;0.55;;;;;;;;;;5067399;28;20200;-88
2022/01/31 10:22:05;;;;;;;0.57;0.57;;;;;;;;;;5065967;28;20627;-87
2022/01/31 10:24:35;;;;;;;0.70;0.70;;;;;;;;;;5068001;28;20208;-88
2022/01/31 10:27:14;;;;;;;0.90;0.90;;;;;;;;;;5059555;28;20260;-87
2022/01/31 10:29:44;;;;;;;0.60;0.60;;;;;;;;;;5064597;28;20679;-88
2022/01/31 10:32:16;;;;;;;0.73;0.73;;;;;;;;;;5067606;28;20209;-89
2022/01/31 10:34:53;;;;;;;0.47;0.47;;;;;;;;;;5061109;28;20209;-89
2022/01/31 10:37:29;;;;;;;0.40;0.40;;;;;;;;;;5062106;28;20229;-88
2022/01/31 10:45:53;;;;;;;0.57;0.57;;;;;;;;;;5062750;28;20208;-88
2022/01/31 10:54:07;;;;;;;0.50;0.50;;;;;;;;;;5058417;28;20204;-85
2022/01/31 10:56:40;;;;;;;0.38;0.38;;;;;;;;;;5070547;28;20248;-87
2022/01/31 10:59:12;;;;;;;0.30;0.30;;;;;;;;;;5068103;28;20232;-87
2022/01/31 11:01:43;;;;;;;0.30;0.30;;;;;;;;;;5066248;28;20260;-86
2022/01/31 11:04:14;;;;;;;0.30;0.30;;;;;;;;;;5052867;28;20316;-86
2022/01/31 11:06:43;;;;;;;0.30;0.30;;;;;;;;;;5052432;28;20589;-86
2022/01/31 11:09:12;;;;;;;0.60;0.60;;;;;;;;;;5052584;28;20742;-87
2022/01/31 11:11:50;;;;;;;0.43;0.43;;;;;;;;;;5052508;28;20573;-85
2022/01/31 11:14:22;;;;;;;0.50;0.50;;;;;;;;;;5052395;28;20214;-87
2022/01/31 11:16:56;;;;;;;0.50;0.50;;;;;;;;;;5052455;28;20754;-87
2022/01/31 11:19:32;;;;;;;0.40;0.40;;;;;;;;;;5046324;28;20204;-86
2022/01/31 11:22:06;;;;;;;0.35;0.35;;;;;;;;;;5047252;28;20249;-87
2022/01/31 11:24:46;;;;;;;0.45;0.45;;;;;;;;;;5052803;28;20572;-87
2022/01/31 11:27:23;;;;;;;0.50;0.50;;;;;;;;;;5056437;28;20225;-87
2022/01/31 11:30:02;;;;;;;0.40;0.40;;;;;;;;;;5056562;28;20212;-87
2022/01/31 11:32:33;;;;;;;0.38;0.38;;;;;;;;;;5054931;28;20213;-87
2022/01/31 11:35:03;;;;;;;0.35;0.35;;;;;;;;;;5056309;28;20570;-88
2022/01/31 11:37:41;;;;;;;0.45;0.45;;;;;;;;;;5050060;28;20226;-87
2022/01/31 11:40:12;;;;;;;0.52;0.40;;;;;;;;;;5057546;28;20193;-87
2022/01/31 11:42:42;;;;;;;0.30;0.30;;;;;;;;;;5055813;28;20261;-87
2022/01/31 11:45:16;;;;;;;0.50;0.50;;;;;;;;;;5056491;28;20214;-87
2022/01/31 11:47:48;;;;;;;0.30;0.30;;;;;;;;;;5055888;28;20793;-87
2022/01/31 11:50:16;;;;;;;0.40;0.40;;;;;;;;;;5056989;28;20232;-88
2022/01/31 11:52:47;;;;;;;0.30;0.30;;;;;;;;;;5055748;28;20256;-87
2022/01/31 11:55:18;;;;;;;0.50;0.50;;;;;;;;;;5056084;28;20648;-87
2022/01/31 11:57:48;;;;;;;0.60;0.60;;;;;;;;;;5055697;28;20229;-87
2022/01/31 12:00:21;;;;;;;0.40;0.40;;;;;;;;;;5057021;28;20213;-88
2022/01/31 12:02:50;;;;;;;0.60;0.60;;;;;;;;;;5062368;28;20623;-87
2022/01/31 12:05:22;;;;;;;0.80;0.80;;;;;;;;;;5057097;28;20624;-86
2022/01/31 12:08:02;;;;;;;0.80;0.80;;;;;;;;;;5067944;28;20224;-87
2022/01/31 12:10:34;;;;;;;0.50;0.50;;;;;;;;;;5058178;28;20208;-87
2022/01/31 12:13:13;;;;;;;0.60;0.60;;;;;;;;;;5056452;28;20202;-87
2022/01/31 12:15:57;;;;;;;0.50;0.50;;;;;;;;;;5062728;28;20283;-88
2022/01/31 12:18:46;;;;;;;0.80;0.80;;;;;;;;;;5063672;28;20677;-89
2022/01/31 12:24:12;;;;;;;0.80;0.80;;;;;;;;;;5051894;28;20270;-85
2022/01/31 12:26:56;;;;;;;0.60;0.60;;;;;;;;;;5056622;28;20233;-88
2022/01/31 12:29:26;;;;;;;0.80;0.80;;;;;;;;;;5063851;28;20224;-89
2022/01/31 12:31:56;;;;;;;0.50;0.50;;;;;;;;;;5060510;28;20284;-87
2022/01/31 12:34:35;;;;;;;6.97;5.38;;;;;;;;;;5055456;28;20209;-87
2022/01/31 12:37:16;;;;;;;3.15;2.67;;;;;;;;;;5068147;28;20313;-87
2022/01/31 12:40:00;;;;;;;5.55;4.03;;;;;;;;;;5060438;28;20640;-87
2022/01/31 12:43:07;;;;;;;1.83;1.55;;;;;;;;;;5050320;28;20217;-87
2022/01/31 12:46:07;;;;;;;1.58;1.48;;;;;;;;;;5068697;28;20296;-86
2022/01/31 12:48:36;;;;;;;1.13;1.10;;;;;;;;;;5058457;28;20271;-87
2022/01/31 12:51:20;;;;;;;0.70;0.70;;;;;;;;;;5055189;28;20263;-87
2022/01/31 12:53:49;;;;;;;1.00;1.00;;;;;;;;;;5067294;28;20664;-87
2022/01/31 12:56:30;;;;;;;1.77;1.50;;;;;;;;;;5074815;28;20225;-88
2022/01/31 12:59:15;;;;;;;0.98;0.98;;;;;;;;;;5057941;28;20240;-86
2022/01/31 13:01:55;;;;;;;0.90;0.90;;;;;;;;;;5073840;28;20225;-86
2022/01/31 13:04:28;;;;;;;1.23;0.98;;;;;;;;;;5056065;28;20264;-86
2022/01/31 13:06:59;;;;;;;0.82;0.70;;;;;;;;;;5054509;28;20591;-87
2022/01/31 13:09:29;;;;;;;0.77;0.75;;;;;;;;;;5061351;28;20213;-86
2022/01/31 13:12:04;;;;;;;0.90;0.90;;;;;;;;;;5047829;28;20205;-85
2022/01/31 13:14:41;;;;;;;0.82;0.82;;;;;;;;;;5049397;28;20215;-85
2022/01/31 13:34:57;;;;;;;1.25;1.02;;;;;;;;;;5072356;28;20217;-85
2022/01/31 13:38:28;;;;;;;1.30;1.27;;;;;;;;;;5067524;28;20233;-86
2022/01/31 13:45:19;;;;;;;1.00;1.00;;;;;;;;;;4975700;28;20259;-85
2022/01/31 13:47:52;;;;;;;0.90;0.90;;;;;;;;;;5057877;28;20260;-85
2022/01/31 13:50:24;;;;;;;1.92;1.10;;;;;;;;;;5066182;28;20208;-86
2022/01/31 13:52:58;;;;;;;1.30;1.20;;;;;;;;;;5073289;28;20215;-85
2022/01/31 13:55:27;;;;;;;0.98;0.90;;;;;;;;;;5054365;28;20209;-86
2022/01/31 13:57:55;;;;;;;3.17;1.48;;;;;;;;;;5053964;28;20259;-86
2022/01/31 14:00:24;;;;;;;1.02;1.02;;;;;;;;;;5054122;28;20205;-86
2022/01/31 14:03:06;;;;;;;1.27;1.17;;;;;;;;;;5054484;28;20221;-85
2022/01/31 14:05:35;;;;;;;1.08;1.02;;;;;;;;;;5063121;28;20649;-85
2022/01/31 14:08:06;;;;;;;1.33;0.90;;;;;;;;;;5071708;28;20201;-86
2022/01/31 14:10:35;;;;;;;1.27;1.17;;;;;;;;;;5053406;28;20681;-86
2022/01/31 14:13:06;;;;;;;0.95;0.95;;;;;;;;;;5062051;28;20201;-85
2022/01/31 14:15:43;;;;;;;1.27;1.17;;;;;;;;;;5074135;28;20865;-85
2022/01/31 14:18:11;;;;;;;1.25;1.08;;;;;;;;;;5072790;28;20603;-85
2022/01/31 14:20:38;;;;;;;1.17;1.08;;;;;;;;;;5055803;28;20246;-85
2022/01/31 14:23:10;;;;;;;0.90;0.90;;;;;;;;;;5058309;28;20228;-84
2022/01/31 14:25:40;;;;;;;0.82;0.82;;;;;;;;;;5074757;28;20215;-85
2022/01/31 14:28:10;;;;;;;0.90;0.90;;;;;;;;;;5073540;28;20292;-85
2022/01/31 14:30:50;;;;;;;1.00;1.00;;;;;;;;;;5074306;28;20204;-85
2022/01/31 14:33:23;;;;;;;1.10;1.10;;;;;;;;;;5075484;28;20221;-83
2022/01/31 14:36:08;;;;;;;0.80;0.80;;;;;;;;;;5056386;28;20222;-85
2022/01/31 14:38:57;;;;;;;1.20;1.20;;;;;;;;;;5066387;28;20212;-85
2022/01/31 14:41:47;;;;;;;0.90;0.90;;;;;;;;;;5055766;28;20205;-85
2022/01/31 14:47:21;;;;;;;0.73;0.73;;;;;;;;;;5057099;28;20229;-85
2022/01/31 14:49:51;;;;;;;4.25;1.40;;;;;;;;;;5057126;28;20637;-85
2022/01/31 14:52:19;;;;;;;1.48;1.38;;;;;;;;;;5055973;28;20208;-85
2022/01/31 14:55:02;;;;;;;3.92;1.58;;;;;;;;;;5069898;28;20204;-85
2022/01/31 14:57:29;;;;;;;1.30;1.20;;;;;;;;;;5073955;28;20700;-84
2022/01/31 14:59:57;;;;;;;1.42;1.27;;;;;;;;;;5075206;28;20212;-84
2022/01/31 15:02:32;;;;;;;1.08;1.00;;;;;;;;;;5076377;28;20224;-84
2022/01/31 15:05:03;;;;;;;1.58;1.48;;;;;;;;;;5076018;28;20200;-85
2022/01/31 15:07:31;;;;;;;1.80;1.70;;;;;;;;;;5064677;28;20221;-85
2022/01/31 15:10:02;;;;;;;2.03;1.30;;;;;;;;;;5059133;28;20216;-85
2022/01/31 15:12:30;;;;;;;0.98;0.98;;;;;;;;;;5074411;28;20207;-85
2022/01/31 15:14:57;;;;;;;1.80;1.60;;;;;;;;;;5057006;28;20220;-84
2022/01/31 15:17:26;;;;;;;1.90;1.50;;;;;;;;;;5056260;28;20226;-84
2022/01/31 15:19:56;;;;;;;1.52;1.42;;;;;;;;;;5055323;28;20578;-84
2022/01/31 15:22:23;;;;;;;1.48;1.38;;;;;;;;;;5055535;28;20227;-85
2022/01/31 15:24:51;;;;;;;1.80;1.23;;;;;;;;;;5061597;28;20209;-85
2022/01/31 15:27:18;;;;;;;1.40;1.30;;;;;;;;;;5075726;28;20644;-85
2022/01/31 15:29:50;;;;;;;1.52;1.35;;;;;;;;;;5075361;28;20209;-86
2022/01/31 15:32:18;;;;;;;1.27;1.13;;;;;;;;;;5075681;28;20669;-84
2022/01/31 15:34:46;;;;;;;1.45;1.35;;;;;;;;;;5075048;28;20213;-85
2022/01/31 15:37:13;;;;;;;1.33;1.13;;;;;;;;;;5075246;28;20228;-85
2022/01/31 15:39:41;;;;;;;1.17;1.13;;;;;;;;;;5066259;28;20254;-84
2022/01/31 15:42:10;;;;;;;3.22;1.30;;;;;;;;;;5055919;28;20630;-84
2022/01/31 15:44:41;;;;;;;1.45;1.40;;;;;;;;;;5055560;28;20232;-85
2022/01/31 15:47:09;;;;;;;1.50;1.40;;;;;;;;;;5055612;28;20255;-84